Time;durP1;ratioP1;P1;durP2;ratioP2;P2;SDS_P1;SDS_P2;PMS_P1;PMS_P2;Temp;Humidity;BMP_temperature;BMP_pressure;BME280_temperature;BME280_humidity;BME280_pressure;Samples;Min_cycle;Max_cycle;Signal;HPM_P1;HPM_P2
2021/09/11 03:38:39;;;;;;;34.17;28.58;;;;;;;8.56;100.00;99229.81;2101711;28;20213;-71
2021/09/11 03:39:40;;;;;;;38.53;29.08;;;;;;;8.53;100.00;99221.59;2072333;28;20568;-72
2021/09/11 03:40:42;;;;;;;38.60;29.53;;;;;;;8.50;100.00;99222.94;2074017;28;20189;-71
2021/09/11 03:41:43;;;;;;;39.03;30.35;;;;;;;8.51;100.00;99229.84;2082654;28;20218;-71
2021/09/11 03:42:44;;;;;;;42.80;31.20;;;;;;;8.52;100.00;99230.66;2082631;28;20187;-71
2021/09/11 03:43:46;;;;;;;36.20;29.75;;;;;;;8.51;100.00;99224.53;2073806;28;20736;-71
2021/09/11 03:44:47;;;;;;;39.80;30.98;;;;;;;8.52;100.00;99222.69;2065792;28;20770;-71
2021/09/11 03:45:48;;;;;;;41.95;30.60;;;;;;;8.55;100.00;99227.44;2073854;28;20228;-71
2021/09/11 03:46:50;;;;;;;37.53;30.13;;;;;;;8.56;100.00;99223.69;2082666;28;20199;-71
2021/09/11 03:47:50;;;;;;;38.92;30.13;;;;;;;8.58;100.00;99235.63;2082590;28;20267;-71
2021/09/11 03:48:52;;;;;;;43.43;31.13;;;;;;;8.57;100.00;99222.63;2082612;28;20190;-71
2021/09/11 03:49:54;;;;;;;40.38;30.30;;;;;;;8.59;100.00;99225.78;2073290;28;20243;-71
2021/09/11 03:50:56;;;;;;;39.20;30.58;;;;;;;8.59;100.00;99225.78;2073989;28;20198;-71
2021/09/11 03:51:57;;;;;;;50.58;31.65;;;;;;;8.62;100.00;99225.25;2073646;28;20204;-71
2021/09/11 03:52:58;;;;;;;40.77;31.40;;;;;;;8.62;100.00;99214.63;2065490;28;20357;-70
2021/09/11 03:54:00;;;;;;;39.80;30.67;;;;;;;8.63;100.00;99216.19;2065282;28;20300;-71
2021/09/11 03:55:03;;;;;;;42.88;31.77;;;;;;;8.67;100.00;99219.88;2073988;28;20231;-71
2021/09/11 03:56:05;;;;;;;40.63;30.52;;;;;;;8.68;100.00;99216.13;2082535;28;20196;-71
2021/09/11 03:57:07;;;;;;;41.15;30.75;;;;;;;8.69;100.00;99221.22;2073617;28;20737;-70
2021/09/11 03:58:08;;;;;;;39.63;30.88;;;;;;;8.66;100.00;99219.09;2065175;28;20299;-71
2021/09/11 03:59:09;;;;;;;40.58;31.10;;;;;;;8.68;100.00;99219.59;2073773;28;20192;-71
2021/09/11 04:00:11;;;;;;;42.75;31.52;;;;;;;8.66;100.00;99220.94;2073743;28;20204;-72
2021/09/11 04:01:13;;;;;;;36.30;29.60;;;;;;;8.68;100.00;99219.59;2073948;28;20363;-71
2021/09/11 04:02:13;;;;;;;39.20;29.38;;;;;;;8.65;100.00;99216.72;2082472;28;20627;-70
2021/09/11 04:03:15;;;;;;;42.93;30.40;;;;;;;8.65;100.00;99214.84;2082617;28;20218;-71
2021/09/11 04:04:17;;;;;;;38.95;30.38;;;;;;;8.61;100.00;99205.84;2073641;28;20207;-71
2021/09/11 04:05:19;;;;;;;34.58;29.27;;;;;;;8.61;100.00;99221.00;2073923;28;20574;-71
2021/09/11 04:06:19;;;;;;;33.72;28.55;;;;;;;8.54;100.00;99221.31;2082474;28;20278;-70
2021/09/11 04:07:21;;;;;;;39.80;29.30;;;;;;;8.52;100.00;99225.34;2082640;28;20195;-71
2021/09/11 04:08:21;;;;;;;41.85;29.95;;;;;;;8.48;100.00;99211.78;2082654;28;20222;-71
2021/09/11 04:09:24;;;;;;;35.03;28.53;;;;;;;8.43;100.00;99222.47;2073559;28;20241;-71
2021/09/11 04:10:26;;;;;;;34.15;28.90;;;;;;;8.41;100.00;99219.28;2073773;28;20648;-72
2021/09/11 04:11:29;;;;;;;37.78;29.35;;;;;;;8.37;100.00;99223.59;2082405;28;20672;-71
2021/09/11 04:12:30;;;;;;;37.42;29.40;;;;;;;8.34;100.00;99224.91;2073512;28;20200;-70
2021/09/11 04:13:32;;;;;;;36.33;29.20;;;;;;;8.32;100.00;99220.91;2073740;28;20188;-71
2021/09/11 04:14:32;;;;;;;37.08;29.00;;;;;;;8.28;100.00;99215.38;2082473;28;20279;-71
2021/09/11 04:15:34;;;;;;;35.77;29.27;;;;;;;8.26;100.00;99222.03;2073579;28;20204;-71
2021/09/11 04:16:34;;;;;;;36.47;29.73;;;;;;;8.23;100.00;99218.84;2073684;28;20278;-71
2021/09/11 04:17:36;;;;;;;39.37;31.13;;;;;;;8.21;100.00;99220.19;2082411;28;20191;-71
2021/09/11 04:18:38;;;;;;;37.92;30.65;;;;;;;8.20;100.00;99224.72;2082342;28;20188;-71
2021/09/11 04:19:40;;;;;;;40.92;30.40;;;;;;;8.16;100.00;99217.56;2073836;28;20203;-71
2021/09/11 04:20:41;;;;;;;37.67;30.63;;;;;;;8.14;100.00;99220.50;2073681;28;20185;-71
2021/09/11 04:21:42;;;;;;;36.87;29.50;;;;;;;8.15;100.00;99218.63;2082347;28;20187;-70
2021/09/11 04:22:43;;;;;;;40.10;31.38;;;;;;;8.13;100.00;99218.91;2082337;28;20187;-71
2021/09/11 04:23:45;;;;;;;41.40;30.97;;;;;;;8.14;100.00;99225.81;2073530;28;20196;-71
2021/09/11 04:24:47;;;;;;;37.58;30.27;;;;;;;8.14;100.00;99225.03;2065406;28;20228;-71
2021/09/11 04:25:51;;;;;;;39.05;30.75;;;;;;;8.11;100.00;99226.38;2073742;28;20192;-71
2021/09/11 04:26:53;;;;;;;37.88;30.13;;;;;;;8.12;100.00;99227.16;2082522;28;20194;-71
2021/09/11 04:27:55;;;;;;;41.92;30.67;;;;;;;8.10;100.00;99224.00;2082399;28;20242;-71
2021/09/11 04:28:55;;;;;;;37.97;30.63;;;;;;;8.10;100.00;99224.78;2073487;28;20200;-71
2021/09/11 04:29:58;;;;;;;44.30;31.70;;;;;;;8.08;100.00;99226.94;2073776;28;20196;-71
2021/09/11 04:30:59;;;;;;;41.97;31.77;;;;;;;8.08;100.00;99226.13;2073209;28;20258;-71
2021/09/11 04:32:04;;;;;;;34.93;30.73;;;;;;;8.07;100.00;99222.66;2073586;28;20188;-71
2021/09/11 04:33:04;;;;;;;43.08;30.67;;;;;;;8.06;100.00;99225.59;2082098;28;20458;-71
2021/09/11 04:34:06;;;;;;;37.37;31.20;;;;;;;8.06;100.00;99225.59;2082392;28;20188;-71
2021/09/11 04:35:07;;;;;;;37.00;29.98;;;;;;;8.05;100.00;99221.38;2082452;28;20191;-71
2021/09/11 04:36:09;;;;;;;39.55;31.38;;;;;;;8.04;100.00;99220.56;2073532;28;20604;-71
2021/09/11 04:37:09;;;;;;;38.00;30.38;;;;;;;8.04;100.00;99228.53;2073731;28;20195;-71
2021/09/11 04:38:11;;;;;;;37.63;30.17;;;;;;;8.03;100.00;99220.84;2082226;28;20198;-70
2021/09/11 04:39:13;;;;;;;37.30;30.80;;;;;;;8.03;100.00;99223.50;2086781;28;20238;-72
2021/09/11 04:40:16;;;;;;;43.90;31.00;;;;;;;8.01;100.00;99226.44;2081218;28;20203;-71
2021/09/11 04:41:17;;;;;;;40.35;31.27;;;;;;;8.02;100.00;99216.59;2081817;28;20187;-71
2021/09/11 04:42:19;;;;;;;38.10;30.97;;;;;;;8.01;100.00;99225.66;2090640;28;20218;-71
2021/09/11 04:43:19;;;;;;;40.28;32.25;;;;;;;8.03;100.00;99226.16;2090460;28;20183;-71
2021/09/11 04:44:21;;;;;;;43.30;32.57;;;;;;;8.01;100.00;99225.66;2090452;28;20265;-71
2021/09/11 04:45:24;;;;;;;39.55;31.27;;;;;;;7.98;100.00;99219.00;2090623;28;20229;-71
2021/09/11 04:46:26;;;;;;;42.08;31.42;;;;;;;8.01;100.00;99223.00;2081434;28;20195;-71
2021/09/11 04:47:28;;;;;;;39.17;30.85;;;;;;;8.01;100.00;99223.00;2073414;28;20199;-71
2021/09/11 04:48:30;;;;;;;40.92;31.15;;;;;;;8.03;100.00;99223.50;2082431;28;20678;-71
2021/09/11 04:49:34;;;;;;;41.90;30.60;;;;;;;8.01;100.00;99229.09;2081752;28;20219;-72
2021/09/11 04:50:48;;;;;;;40.50;30.80;;;;;;;8.02;100.00;99224.59;2073226;28;20651;-71
2021/09/11 04:51:48;;;;;;;36.60;30.85;;;;;;;8.01;100.00;99225.66;2077209;28;20266;-72
2021/09/11 04:52:52;;;;;;;37.97;31.17;;;;;;;8.03;100.00;99224.31;2090329;28;20183;-71
2021/09/11 04:53:53;;;;;;;40.38;31.10;;;;;;;8.06;100.00;99226.41;2081461;28;20211;-71
2021/09/11 04:54:54;;;;;;;35.40;31.60;;;;;;;8.09;100.00;99233.84;2081551;28;20230;-71
2021/09/11 04:55:56;;;;;;;40.05;31.13;;;;;;;8.11;100.00;99236.22;2090465;28;20187;-71
2021/09/11 04:56:58;;;;;;;34.88;30.75;;;;;;;8.13;100.00;99234.88;2090545;28;20188;-71
2021/09/11 04:58:00;;;;;;;37.38;30.23;;;;;;;8.14;100.00;99222.38;2090544;28;20183;-71
2021/09/11 04:59:00;;;;;;;37.30;29.95;;;;;;;8.17;100.00;99229.81;2081072;28;20199;-71
2021/09/11 05:00:05;;;;;;;41.00;31.90;;;;;;;8.18;100.00;99236.72;2073408;28;20292;-71
2021/09/11 05:01:05;;;;;;;35.45;29.63;;;;;;;8.19;100.00;99233.78;2073612;28;20200;-71
2021/09/11 05:02:07;;;;;;;40.40;30.83;;;;;;;8.18;100.00;99234.84;2081429;28;20247;-71
2021/09/11 05:03:08;;;;;;;43.17;31.67;;;;;;;8.22;100.00;99232.41;2081614;28;20327;-71
2021/09/11 05:04:09;;;;;;;40.80;31.07;;;;;;;8.21;100.00;99233.50;2090335;28;20190;-71
2021/09/11 05:05:10;;;;;;;36.10;29.75;;;;;;;8.23;100.00;99239.31;2080992;28;20210;-71
2021/09/11 05:06:12;;;;;;;37.50;30.60;;;;;;;8.25;100.00;99237.16;2081541;28;20270;-71
2021/09/11 05:07:13;;;;;;;38.70;29.40;;;;;;;8.26;100.00;99236.13;2090532;28;20491;-71
2021/09/11 05:08:17;;;;;;;34.87;29.40;;;;;;;8.29;100.00;99246.19;2090516;28;20195;-71
2021/09/11 05:09:18;;;;;;;38.42;31.70;;;;;;;8.31;100.00;99240.59;2090379;28;20187;-71
2021/09/11 05:10:19;;;;;;;33.93;29.93;;;;;;;8.34;100.00;99243.50;2090537;28;20245;-71
2021/09/11 05:11:22;;;;;;;37.97;31.23;;;;;;;8.38;100.00;99241.91;2081016;28;20302;-71
2021/09/11 05:12:23;;;;;;;33.88;29.38;;;;;;;8.40;100.00;99242.41;2081944;28;20266;-71
2021/09/11 05:13:24;;;;;;;39.20;30.33;;;;;;;8.42;100.00;99247.47;2090247;28;20218;-71
2021/09/11 05:14:26;;;;;;;35.17;29.70;;;;;;;8.44;100.00;99246.13;2090321;28;20191;-71
2021/09/11 05:15:27;;;;;;;37.85;29.70;;;;;;;8.47;100.00;99242.91;2090393;28;20190;-71
2021/09/11 05:16:28;;;;;;;38.53;29.42;;;;;;;8.51;100.00;99251.13;2090274;28;20191;-71
2021/09/11 05:17:30;;;;;;;36.03;29.37;;;;;;;8.52;100.00;99252.72;2090259;28;20237;-71
2021/09/11 05:18:32;;;;;;;38.72;30.65;;;;;;;8.54;100.00;99244.47;2090404;28;20285;-71
2021/09/11 05:19:34;;;;;;;38.58;29.80;;;;;;;8.57;100.00;99254.53;2090390;28;20194;-71
2021/09/11 05:20:36;;;;;;;38.65;30.13;;;;;;;8.62;100.00;99251.84;2090239;28;20350;-71
2021/09/11 05:21:39;;;;;;;39.92;31.35;;;;;;;8.65;100.00;99252.06;2090251;28;20211;-72
2021/09/11 05:22:41;;;;;;;35.88;30.02;;;;;;;8.70;100.00;99253.91;2081350;28;20238;-71
2021/09/11 05:23:42;;;;;;;39.87;30.17;;;;;;;8.75;100.00;99256.53;2081656;28;20658;-70
2021/09/11 05:24:43;;;;;;;37.40;29.67;;;;;;;8.76;100.00;99250.91;2090221;28;20222;-71
2021/09/11 05:25:44;;;;;;;36.93;30.40;;;;;;;8.80;100.00;99256.50;2090354;28;20187;-71
2021/09/11 05:26:46;;;;;;;37.35;30.17;;;;;;;8.85;100.00;99251.09;2090218;28;20187;-71
2021/09/11 05:27:50;;;;;;;37.15;30.42;;;;;;;8.87;100.00;99250.84;2090342;28;20680;-72
2021/09/11 05:28:51;;;;;;;41.30;31.30;;;;;;;8.88;100.00;99250.56;2090266;28;20179;-71
2021/09/11 05:29:52;;;;;;;39.00;31.50;;;;;;;8.93;100.00;99247.84;2090204;28;20712;-71
2021/09/11 05:30:53;;;;;;;36.40;29.33;;;;;;;8.96;100.00;99247.31;2080977;28;20299;-72
2021/09/11 05:31:55;;;;;;;37.50;30.27;;;;;;;8.97;100.00;99243.56;2081661;28;20753;-71
2021/09/11 05:32:55;;;;;;;37.05;30.02;;;;;;;9.01;100.00;99241.91;2090134;28;20195;-71
2021/09/11 05:33:57;;;;;;;38.70;29.90;;;;;;;9.05;100.00;99252.81;2090149;28;20210;-71
2021/09/11 05:35:00;;;;;;;42.40;30.45;;;;;;;9.07;100.00;99248.00;2090227;28;20226;-71
2021/09/11 05:36:04;;;;;;;37.30;30.50;;;;;;;9.14;100.00;99250.34;2090300;28;20214;-71
2021/09/11 05:37:05;;;;;;;37.97;29.63;;;;;;;9.18;100.00;99248.69;2090387;28;20531;-71
2021/09/11 05:38:07;;;;;;;45.67;30.73;;;;;;;9.22;100.00;99252.38;2090271;28;20199;-72
2021/09/11 05:39:07;;;;;;;37.38;30.58;;;;;;;9.25;100.00;99249.16;2081184;28;20656;-71
2021/09/11 05:40:09;;;;;;;35.03;29.50;;;;;;;9.33;100.00;99256.53;2081395;28;20188;-71
2021/09/11 05:41:10;;;;;;;34.65;29.65;;;;;;;9.35;100.00;99254.34;2090166;28;20302;-71
2021/09/11 05:42:19;;;;;;;33.67;29.60;;;;;;;9.42;100.00;99254.81;2090136;28;20191;-71
2021/09/11 05:43:21;;;;;;;38.10;29.85;;;;;;;9.47;100.00;99254.78;2091700;28;20194;-71
2021/09/11 05:44:23;;;;;;;36.85;29.73;;;;;;;9.50;100.00;99254.19;2092042;28;20187;-71
2021/09/11 05:45:24;;;;;;;39.70;29.65;;;;;;;9.57;100.00;99251.19;2082624;28;20629;-71
2021/09/11 05:46:26;;;;;;;32.83;29.03;;;;;;;9.62;100.00;99253.78;2082981;28;20191;-71
2021/09/11 05:47:26;;;;;;;33.88;29.60;;;;;;;9.67;100.00;99250.28;2091831;28;20290;-71
2021/09/11 05:48:28;;;;;;;35.37;28.97;;;;;;;9.71;100.00;99259.28;2082858;28;20200;-71
2021/09/11 05:49:28;;;;;;;36.80;29.42;;;;;;;9.77;100.00;99260.81;2082956;28;20191;-71
2021/09/11 05:50:30;;;;;;;34.07;29.13;;;;;;;9.80;100.00;99258.34;2091952;28;20194;-71
2021/09/11 05:51:31;;;;;;;32.90;27.30;;;;;;;9.85;100.00;99260.97;2091896;28;20629;-71
2021/09/11 05:52:32;;;;;;;34.10;28.10;;;;;;;9.90;100.00;99255.59;2082909;28;20200;-71
2021/09/11 05:53:33;;;;;;;33.78;28.08;;;;;;;9.97;100.00;99252.53;2074563;28;20315;-71
2021/09/11 05:54:35;;;;;;;43.00;30.47;;;;;;;10.02;100.00;99255.16;2083103;28;20195;-71
2021/09/11 05:55:35;;;;;;;35.35;28.65;;;;;;;10.08;100.00;99258.56;2091686;28;20179;-71
2021/09/11 05:56:37;;;;;;;32.83;28.03;;;;;;;10.11;100.00;99258.75;2091961;28;20187;-71
2021/09/11 05:57:41;;;;;;;34.17;28.88;;;;;;;10.19;100.00;99255.44;2082762;28;20199;-71
2021/09/11 05:58:44;;;;;;;33.13;27.48;;;;;;;10.29;100.00;99261.75;2083560;28;20191;-71
2021/09/11 05:59:44;;;;;;;31.48;27.08;;;;;;;10.34;100.00;99256.34;2082783;28;20195;-72
2021/09/11 06:00:46;;;;;;;30.73;26.80;;;;;;;10.38;100.00;99252.03;2074277;28;20779;-71
2021/09/11 06:01:47;;;;;;;30.85;26.65;;;;;;;10.43;100.00;99254.63;2074191;28;20212;-72
2021/09/11 06:02:48;;;;;;;33.47;27.55;;;;;;;10.46;100.00;99246.03;2082840;28;20211;-71
2021/09/11 06:03:50;;;;;;;29.77;25.80;;;;;;;10.54;100.00;99249.91;2082747;28;20678;-71
2021/09/11 06:04:52;;;;;;;29.48;26.33;;;;;;;10.62;100.00;99249.25;2074557;28;20200;-71
2021/09/11 06:05:57;;;;;;;32.00;25.58;;;;;;;10.65;100.00;99246.78;2083083;28;20191;-71
2021/09/11 06:06:57;;;;;;;31.52;26.27;;;;;;;10.71;100.00;99250.19;2082779;28;20223;-71
2021/09/11 06:07:59;;;;;;;31.40;26.60;;;;;;;10.76;100.00;99250.06;2082656;28;20200;-71
2021/09/11 06:08:59;;;;;;;29.48;26.05;;;;;;;10.81;100.00;99247.34;2074125;28;20200;-71
2021/09/11 06:10:01;;;;;;;27.53;24.77;;;;;;;10.86;100.00;99247.25;2082792;28;20539;-71
2021/09/11 06:11:02;;;;;;;28.08;25.08;;;;;;;10.91;100.00;99255.16;2083019;28;20251;-71
2021/09/11 06:12:05;;;;;;;30.70;26.10;;;;;;;10.97;100.00;99255.88;2082797;28;20294;-71
2021/09/11 06:13:09;;;;;;;31.27;26.05;;;;;;;11.04;100.00;99243.75;2091674;28;20248;-71
2021/09/11 06:14:09;;;;;;;29.27;25.02;;;;;;;11.08;100.00;99240.47;2091633;28;20233;-71
2021/09/11 06:15:12;;;;;;;29.57;25.17;;;;;;;11.16;100.00;99237.13;2091562;28;20665;-71
2021/09/11 06:16:13;;;;;;;27.98;25.00;;;;;;;11.21;100.00;99243.19;2091557;28;20225;-71
2021/09/11 06:17:14;;;;;;;28.47;25.53;;;;;;;11.26;100.00;99237.72;2091561;28;20190;-72
2021/09/11 06:18:15;;;;;;;28.10;25.10;;;;;;;11.33;100.00;99246.13;2091573;28;20191;-72
2021/09/11 06:19:19;;;;;;;29.17;24.97;;;;;;;11.38;100.00;99239.09;2082605;28;20227;-71
2021/09/11 06:20:20;;;;;;;28.20;25.20;;;;;;;11.47;100.00;99248.81;2083040;28;20595;-71
2021/09/11 06:21:22;;;;;;;28.80;24.40;;;;;;;11.54;100.00;99240.38;2082671;28;20191;-71
2021/09/11 06:22:22;;;;;;;28.95;24.90;;;;;;;11.59;100.00;99241.09;2082845;28;20276;-72
2021/09/11 06:23:24;;;;;;;31.53;25.70;;;;;;;11.66;100.00;99242.59;2091485;28;20250;-71
2021/09/11 06:24:24;;;;;;;31.08;24.73;;;;;;;11.71;100.00;99243.25;2091484;28;20187;-71
2021/09/11 06:25:26;;;;;;;29.73;24.57;;;;;;;11.81;100.00;99243.06;2091513;28;20180;-71
2021/09/11 06:26:27;;;;;;;26.70;23.95;;;;;;;11.88;100.00;99243.47;2091553;28;20535;-71
2021/09/11 06:27:28;;;;;;;27.17;24.37;;;;;;;11.96;100.00;99236.63;2091204;28;20202;-71
2021/09/11 06:28:31;;;;;;;26.58;23.98;;;;;;;12.05;100.00;99234.03;2091484;28;20529;-72
2021/09/11 06:29:32;;;;;;;28.33;24.23;;;;;;;12.08;100.00;99233.44;2091440;28;20573;-71
2021/09/11 06:30:33;;;;;;;28.83;23.95;;;;;;;12.16;100.00;99233.53;2091434;28;20721;-71
2021/09/11 06:31:34;;;;;;;30.07;24.53;;;;;;;12.23;100.00;99226.94;2091382;28;20573;-71
2021/09/11 06:32:35;;;;;;;30.98;25.55;;;;;;;12.34;100.00;99229.09;2082436;28;20227;-72
2021/09/11 06:33:37;;;;;;;28.10;24.80;;;;;;;12.38;100.00;99224.72;2074179;28;20221;-71
2021/09/11 06:34:37;;;;;;;26.65;23.58;;;;;;;12.45;100.00;99219.72;2082633;28;20195;-71
2021/09/11 06:35:39;;;;;;;27.90;24.10;;;;;;;12.50;100.00;99226.03;2091401;28;20207;-71
2021/09/11 06:36:40;;;;;;;28.77;23.38;;;;;;;12.56;100.00;99219.47;2091603;28;20194;-72
2021/09/11 06:37:41;;;;;;;30.67;25.27;;;;;;;12.61;100.00;99227.41;2081795;28;20211;-71
2021/09/11 06:38:42;;;;;;;28.95;24.63;;;;;;;12.65;100.00;99225.69;2082468;28;20275;-71
2021/09/11 06:39:44;;;;;;;27.40;24.33;;;;;;;12.71;100.00;99224.47;2091391;28;20186;-71
2021/09/11 06:40:46;;;;;;;26.83;23.92;;;;;;;12.77;100.00;99231.28;2091435;28;20274;-71
2021/09/11 06:41:47;;;;;;;27.75;24.85;;;;;;;12.81;100.00;99226.09;2091543;28;20204;-71
2021/09/11 06:42:48;;;;;;;27.07;24.17;;;;;;;12.86;100.00;99226.78;2091549;28;20266;-71
2021/09/11 06:43:51;;;;;;;26.85;23.77;;;;;;;12.89;100.00;99228.81;2091445;28;20650;-71
2021/09/11 06:44:52;;;;;;;28.52;23.85;;;;;;;12.97;100.00;99233.44;2091511;28;20183;-71
2021/09/11 06:45:53;;;;;;;25.63;22.98;;;;;;;13.01;100.00;99236.28;2091403;28;20274;-71
2021/09/11 06:46:54;;;;;;;29.50;23.93;;;;;;;13.07;100.00;99228.91;2082452;28;20187;-71
2021/09/11 06:47:57;;;;;;;26.15;23.52;;;;;;;13.12;100.00;99220.72;2082720;28;20223;-71
2021/09/11 06:48:59;;;;;;;26.48;23.80;;;;;;;13.16;100.00;99224.38;2091389;28;20548;-71
2021/09/11 06:50:02;;;;;;;27.13;22.90;;;;;;;13.21;100.00;99229.66;2091258;28;20198;-72
2021/09/11 06:51:03;;;;;;;26.70;24.10;;;;;;;13.26;100.00;99221.47;2082416;28;20302;-72
2021/09/11 06:52:06;;;;;;;26.90;23.67;;;;;;;13.31;100.00;99225.91;2082616;28;20270;-72
2021/09/11 06:53:07;;;;;;;25.52;23.15;;;;;;;13.37;100.00;99232.69;2082422;28;20294;-73
2021/09/11 06:54:08;;;;;;;25.67;23.17;;;;;;;13.41;100.00;99222.94;2074000;28;20212;-72
2021/09/11 06:55:10;;;;;;;26.20;23.40;;;;;;;13.47;100.00;99227.06;2082373;28;20275;-72
2021/09/11 06:56:11;;;;;;;26.42;23.58;;;;;;;13.49;100.00;99225.66;2091219;28;20550;-72
2021/09/11 06:57:14;;;;;;;26.07;23.57;;;;;;;13.53;100.00;99229.28;2091216;28;20183;-71
2021/09/11 06:58:15;;;;;;;25.85;23.23;;;;;;;13.57;100.00;99232.94;2091249;28;20594;-71
2021/09/11 06:59:18;;;;;;;27.27;23.00;;;;;;;13.65;100.00;99231.38;2091332;28;20199;-71
2021/09/11 07:00:19;;;;;;;26.70;23.90;;;;;;;13.69;100.00;99228.84;2091409;28;20222;-71
2021/09/11 07:01:23;;;;;;;28.05;23.88;;;;;;;13.76;100.00;99235.34;2091193;28;20261;-71
2021/09/11 07:02:24;;;;;;;26.80;23.90;;;;;;;13.80;100.00;99230.91;2091217;28;20241;-71
2021/09/11 07:03:25;;;;;;;29.30;25.90;;;;;;;13.83;100.00;99229.53;2091174;28;20626;-72
2021/09/11 07:04:27;;;;;;;27.00;24.37;;;;;;;13.88;100.00;99221.31;2081677;28;20200;-71
2021/09/11 07:05:27;;;;;;;26.65;23.83;;;;;;;13.95;100.00;99235.06;2082397;28;20203;-72
2021/09/11 07:06:29;;;;;;;26.67;24.07;;;;;;;13.99;100.00;99224.50;2082321;28;20203;-72
2021/09/11 07:07:31;;;;;;;26.63;23.85;;;;;;;14.03;100.00;99226.22;2082351;28;20188;-71
2021/09/11 07:08:33;;;;;;;26.85;24.10;;;;;;;14.07;100.00;99229.06;2091109;28;20227;-72
2021/09/11 07:09:34;;;;;;;25.83;23.38;;;;;;;14.12;100.00;99229.69;2091062;28;20277;-71
2021/09/11 07:10:35;;;;;;;25.40;23.10;;;;;;;14.20;100.00;99230.03;2091134;28;20195;-72
2021/09/11 07:11:36;;;;;;;25.55;22.85;;;;;;;14.23;100.00;99226.69;2082212;28;20341;-72
2021/09/11 07:12:39;;;;;;;25.90;23.40;;;;;;;14.27;100.00;99224.97;2082465;28;20188;-71
2021/09/11 07:13:40;;;;;;;27.55;23.35;;;;;;;14.30;100.00;99219.75;2091263;28;20195;-72
2021/09/11 07:14:43;;;;;;;25.60;23.20;;;;;;;14.35;100.00;99218.81;2091148;28;20641;-71
2021/09/11 07:15:44;;;;;;;26.38;23.67;;;;;;;14.42;100.00;99224.47;2091156;28;20672;-72
2021/09/11 07:16:45;;;;;;;26.80;23.63;;;;;;;14.46;100.00;99222.78;2091111;28;20546;-72
2021/09/11 07:17:46;;;;;;;26.13;22.98;;;;;;;14.51;100.00;99224.50;2091292;28;20278;-73
2021/09/11 07:18:50;;;;;;;25.53;23.00;;;;;;;14.56;100.00;99225.13;2091052;28;20195;-73
2021/09/11 07:19:50;;;;;;;25.27;22.73;;;;;;;14.63;100.00;99225.44;2081678;28;20267;-71
2021/09/11 07:20:52;;;;;;;25.27;22.67;;;;;;;14.68;100.00;99219.09;2082387;28;20273;-71
2021/09/11 07:21:54;;;;;;;24.52;22.17;;;;;;;14.75;100.00;99226.69;2081889;28;20302;-72
2021/09/11 07:22:54;;;;;;;25.88;23.38;;;;;;;14.81;100.00;99228.91;2073637;28;20755;-72
2021/09/11 07:23:56;;;;;;;25.20;22.27;;;;;;;14.85;100.00;99221.75;2082159;28;20227;-72
2021/09/11 07:24:56;;;;;;;24.90;22.35;;;;;;;14.91;100.00;99231.25;2082256;28;20191;-72
2021/09/11 07:25:58;;;;;;;25.67;23.13;;;;;;;14.99;100.00;99226.94;2082392;28;20184;-71
2021/09/11 07:27:00;;;;;;;24.42;22.02;;;;;;;15.04;100.00;99234.06;2082169;28;20199;-72
2021/09/11 07:28:00;;;;;;;24.85;22.45;;;;;;;15.10;100.00;99230.88;2074005;28;20283;-71
2021/09/11 07:29:02;;;;;;;25.47;22.50;;;;;;;15.15;100.00;99224.53;2082299;28;20222;-72
2021/09/11 07:30:06;;;;;;;25.52;22.80;;;;;;;15.19;100.00;99236.22;2082081;28;20294;-72
2021/09/11 07:31:06;;;;;;;24.85;22.45;;;;;;;15.25;100.00;99229.56;2082402;28;20192;-71
2021/09/11 07:32:08;;;;;;;24.83;22.10;;;;;;;15.30;100.00;99236.66;2091017;28;20713;-72
2021/09/11 07:33:09;;;;;;;24.15;21.95;;;;;;;15.34;100.00;99232.19;2090998;28;20278;-72
2021/09/11 07:34:11;;;;;;;24.33;22.10;;;;;;;15.41;100.00;99229.81;2081890;28;20222;-72
2021/09/11 07:35:15;;;;;;;23.77;21.47;;;;;;;15.47;100.00;99231.22;2082261;28;20274;-71
2021/09/11 07:36:16;;;;;;;24.38;22.10;;;;;;;15.51;100.00;99232.13;2090814;28;20842;-72
2021/09/11 07:37:17;;;;;;;24.47;22.27;;;;;;;15.56;100.00;99234.66;2091053;28;20222;-72
2021/09/11 07:38:19;;;;;;;25.07;22.77;;;;;;;15.63;100.00;99234.13;2090927;28;20436;-71
2021/09/11 07:39:19;;;;;;;23.73;21.43;;;;;;;15.67;100.00;99235.09;2090746;28;20281;-72
2021/09/11 07:40:21;;;;;;;26.03;22.90;;;;;;;15.70;100.00;99229.81;2090848;28;20425;-72
2021/09/11 07:41:23;;;;;;;25.33;22.83;;;;;;;15.77;100.00;99235.50;2090869;28;20186;-72
2021/09/11 07:42:26;;;;;;;25.57;22.67;;;;;;;15.84;100.00;99240.38;2082046;28;20442;-72
2021/09/11 07:43:28;;;;;;;24.60;22.10;;;;;;;15.89;100.00;99242.06;2082157;28;20438;-71
2021/09/11 07:44:28;;;;;;;24.63;22.23;;;;;;;15.95;100.00;99238.06;2090851;28;20426;-72
2021/09/11 07:45:31;;;;;;;24.57;22.00;;;;;;;15.99;100.00;99247.09;2090975;28;20426;-72
2021/09/11 07:46:32;;;;;;;24.15;22.05;;;;;;;16.03;100.00;99240.72;2090891;28;20198;-72
2021/09/11 07:47:34;;;;;;;24.70;22.30;;;;;;;16.08;100.00;99245.91;2090883;28;20273;-72
2021/09/11 07:48:36;;;;;;;25.83;23.10;;;;;;;16.14;100.00;99243.78;2081579;28;20199;-72
2021/09/11 07:49:37;;;;;;;24.73;22.13;;;;;;;16.20;100.00;99247.88;2082022;28;20466;-71
2021/09/11 07:50:38;;;;;;;24.93;22.60;;;;;;;16.26;100.00;99246.56;2091056;28;20422;-72
2021/09/11 07:51:39;;;;;;;24.67;22.27;;;;;;;16.31;100.00;99243.66;2090837;28;20218;-72
2021/09/11 07:52:41;;;;;;;25.00;22.53;;;;;;;16.39;100.00;99245.50;2081845;28;20964;-72
2021/09/11 07:53:43;;;;;;;23.97;21.50;;;;;;;16.47;100.00;99243.06;2074101;28;20239;-72
2021/09/11 07:54:43;;;;;;;24.93;22.43;;;;;;;16.54;100.00;99249.50;2081945;28;20968;-72
2021/09/11 07:55:45;;;;;;;25.27;22.87;;;;;;;16.59;100.00;99249.31;2090771;28;20783;-72
2021/09/11 07:56:47;;;;;;;24.60;22.30;;;;;;;16.68;100.00;99254.63;2090987;28;20191;-72
2021/09/11 07:57:49;;;;;;;27.53;23.10;;;;;;;16.74;100.00;99253.28;2090736;28;20513;-72
2021/09/11 07:58:50;;;;;;;25.07;22.67;;;;;;;16.79;100.00;99250.41;2090880;28;20450;-72
2021/09/11 07:59:51;;;;;;;24.63;21.70;;;;;;;16.85;100.00;99246.38;2081859;28;20811;-73
2021/09/11 08:00:55;;;;;;;24.17;21.97;;;;;;;16.90;100.00;99246.16;2082013;28;20414;-72
2021/09/11 08:01:56;;;;;;;24.03;21.87;;;;;;;16.98;100.00;99251.81;2081796;28;20197;-72
2021/09/11 08:03:00;;;;;;;24.03;21.77;;;;;;;17.04;100.00;99245.88;2073624;28;20423;-72
2021/09/11 08:04:02;;;;;;;24.47;22.20;;;;;;;17.08;100.00;99249.47;2082326;28;20952;-72
2021/09/11 08:05:04;;;;;;;24.73;22.33;;;;;;;17.12;100.00;99250.38;2081741;28;20464;-72
2021/09/11 08:06:08;;;;;;;24.43;22.23;;;;;;;17.16;100.00;99240.50;2080769;28;20439;-72
2021/09/11 08:07:09;;;;;;;24.30;21.90;;;;;;;17.21;100.00;99239.50;2082295;28;20468;-72
2021/09/11 08:08:10;;;;;;;24.47;22.03;;;;;;;17.27;100.00;99246.22;2081758;28;20438;-72
2021/09/11 08:09:11;;;;;;;25.40;23.00;;;;;;;17.30;100.00;99245.56;2073554;28;20214;-72
2021/09/11 08:10:13;;;;;;;25.13;22.83;;;;;;;17.34;100.00;99246.47;2081875;28;20433;-72
2021/09/11 08:11:17;;;;;;;31.20;23.13;;;;;;;17.38;100.00;99244.69;2081743;28;20677;-72
2021/09/11 08:12:17;;;;;;;25.57;23.00;;;;;;;17.49;100.00;99242.31;2082456;28;20529;-72
2021/09/11 08:13:20;;;;;;;27.43;23.20;;;;;;;17.52;100.00;99236.25;2080868;28;20450;-72
2021/09/11 08:14:21;;;;;;;25.97;23.37;;;;;;;17.57;100.00;99243.34;2082015;28;20204;-72
2021/09/11 08:15:23;;;;;;;25.73;23.23;;;;;;;17.62;100.00;99238.47;2090802;28;20429;-72
2021/09/11 08:16:25;;;;;;;24.43;22.33;;;;;;;17.65;100.00;99235.13;2081714;28;20266;-72
2021/09/11 08:17:33;;;;;;;25.87;22.60;;;;;;;17.73;100.00;99238.88;2073204;28;20501;-71
2021/09/11 08:18:42;;;;;;;24.30;22.00;;;;;;;17.78;100.00;99244.00;2074461;28;20447;-72
2021/09/11 08:19:44;;;;;;;25.40;22.97;;;;;;;17.84;100.00;99239.97;2083055;28;20391;-72